sensor_id;sensor_type;location;lat;lon;timestamp;temperature;humidity
25556;DHT22;13447;57.174;-2.112;2023-07-13T00:00:11;14.40;1.00
25556;DHT22;13447;57.174;-2.112;2023-07-13T00:02:38;14.40;1.00
25556;DHT22;13447;57.174;-2.112;2023-07-13T00:05:05;14.40;1.00
25556;DHT22;13447;57.174;-2.112;2023-07-13T00:07:33;14.40;1.00
25556;DHT22;13447;57.174;-2.112;2023-07-13T00:10:00;14.40;1.00
25556;DHT22;13447;57.174;-2.112;2023-07-13T00:12:29;14.40;1.00
25556;DHT22;13447;57.174;-2.112;2023-07-13T00:14:57;14.40;1.00
25556;DHT22;13447;57.174;-2.112;2023-07-13T00:17:24;14.30;1.00
25556;DHT22;13447;57.174;-2.112;2023-07-13T00:19:51;14.30;1.00
25556;DHT22;13447;57.174;-2.112;2023-07-13T00:22:18;14.20;1.00
25556;DHT22;13447;57.174;-2.112;2023-07-13T00:24:45;14.20;1.00
25556;DHT22;13447;57.174;-2.112;2023-07-13T00:27:12;14.30;1.00
25556;DHT22;13447;57.174;-2.112;2023-07-13T00:29:40;14.30;1.00
25556;DHT22;13447;57.174;-2.112;2023-07-13T00:32:07;14.30;1.00
25556;DHT22;13447;57.174;-2.112;2023-07-13T00:34:36;14.40;1.00
25556;DHT22;13447;57.174;-2.112;2023-07-13T00:37:02;14.30;1.00
25556;DHT22;13447;57.174;-2.112;2023-07-13T00:39:29;14.30;1.00
25556;DHT22;13447;57.174;-2.112;2023-07-13T00:41:56;14.30;1.00
25556;DHT22;13447;57.174;-2.112;2023-07-13T00:44:23;14.30;1.00
25556;DHT22;13447;57.174;-2.112;2023-07-13T00:46:50;14.30;1.00
25556;DHT22;13447;57.174;-2.112;2023-07-13T00:49:18;14.40;1.00
25556;DHT22;13447;57.174;-2.112;2023-07-13T00:54:15;14.30;1.00
25556;DHT22;13447;57.174;-2.112;2023-07-13T00:56:44;14.30;1.00
25556;DHT22;13447;57.174;-2.112;2023-07-13T00:59:12;14.30;1.00
25556;DHT22;13447;57.174;-2.112;2023-07-13T01:01:39;14.30;1.00
25556;DHT22;13447;57.174;-2.112;2023-07-13T01:04:06;14.30;1.00
25556;DHT22;13447;57.174;-2.112;2023-07-13T01:06:35;14.30;1.00
25556;DHT22;13447;57.174;-2.112;2023-07-13T01:09:03;14.20;1.00
25556;DHT22;13447;57.174;-2.112;2023-07-13T01:11:30;14.20;1.00
25556;DHT22;13447;57.174;-2.112;2023-07-13T01:13:57;14.20;1.00
25556;DHT22;13447;57.174;-2.112;2023-07-13T01:16:25;14.30;1.00
25556;DHT22;13447;57.174;-2.112;2023-07-13T01:18:52;14.20;1.00
25556;DHT22;13447;57.174;-2.112;2023-07-13T01:21:19;14.10;1.00
25556;DHT22;13447;57.174;-2.112;2023-07-13T01:23:46;14.20;1.00
25556;DHT22;13447;57.174;-2.112;2023-07-13T01:26:13;14.10;1.00
25556;DHT22;13447;57.174;-2.112;2023-07-13T01:28:39;14.10;1.00
25556;DHT22;13447;57.174;-2.112;2023-07-13T01:31:06;14.00;1.00
25556;DHT22;13447;57.174;-2.112;2023-07-13T01:33:36;14.00;1.00
25556;DHT22;13447;57.174;-2.112;2023-07-13T01:36:03;14.10;1.00
25556;DHT22;13447;57.174;-2.112;2023-07-13T01:38:30;14.10;1.00
25556;DHT22;13447;57.174;-2.112;2023-07-13T01:40:57;14.10;1.00
25556;DHT22;13447;57.174;-2.112;2023-07-13T01:43:24;14.00;1.00
25556;DHT22;13447;57.174;-2.112;2023-07-13T01:45:51;14.00;1.00
25556;DHT22;13447;57.174;-2.112;2023-07-13T01:48:18;13.90;1.00
25556;DHT22;13447;57.174;-2.112;2023-07-13T01:50:47;14.00;1.00
25556;DHT22;13447;57.174;-2.112;2023-07-13T01:53:13;14.00;1.00
25556;DHT22;13447;57.174;-2.112;2023-07-13T01:55:41;13.90;1.00
25556;DHT22;13447;57.174;-2.112;2023-07-13T01:58:08;14.00;1.00
25556;DHT22;13447;57.174;-2.112;2023-07-13T02:00:35;13.90;1.00
25556;DHT22;13447;57.174;-2.112;2023-07-13T02:03:01;14.00;1.00
25556;DHT22;13447;57.174;-2.112;2023-07-13T02:05:28;13.90;1.00
25556;DHT22;13447;57.174;-2.112;2023-07-13T02:07:55;13.90;1.00
25556;DHT22;13447;57.174;-2.112;2023-07-13T02:10:22;13.90;1.00
25556;DHT22;13447;57.174;-2.112;2023-07-13T02:12:50;13.90;1.00
25556;DHT22;13447;57.174;-2.112;2023-07-13T02:15:17;13.90;1.00
25556;DHT22;13447;57.174;-2.112;2023-07-13T02:17:44;13.90;1.00
25556;DHT22;13447;57.174;-2.112;2023-07-13T02:20:11;13.90;1.00
25556;DHT22;13447;57.174;-2.112;2023-07-13T02:22:38;13.90;1.00
25556;DHT22;13447;57.174;-2.112;2023-07-13T02:25:05;13.90;1.00
25556;DHT22;13447;57.174;-2.112;2023-07-13T02:27:33;14.00;1.00
25556;DHT22;13447;57.174;-2.112;2023-07-13T02:29:59;14.00;1.00
25556;DHT22;13447;57.174;-2.112;2023-07-13T02:32:26;14.00;1.00
25556;DHT22;13447;57.174;-2.112;2023-07-13T02:34:53;14.00;1.00
25556;DHT22;13447;57.174;-2.112;2023-07-13T02:37:20;14.00;1.00
25556;DHT22;13447;57.174;-2.112;2023-07-13T02:39:48;14.00;1.00
25556;DHT22;13447;57.174;-2.112;2023-07-13T02:42:15;14.00;1.00
25556;DHT22;13447;57.174;-2.112;2023-07-13T02:44:41;13.90;1.00
25556;DHT22;13447;57.174;-2.112;2023-07-13T02:47:08;13.90;1.00
25556;DHT22;13447;57.174;-2.112;2023-07-13T02:49:35;14.00;1.00
25556;DHT22;13447;57.174;-2.112;2023-07-13T02:52:03;14.00;1.00
25556;DHT22;13447;57.174;-2.112;2023-07-13T02:54:30;14.00;1.00
25556;DHT22;13447;57.174;-2.112;2023-07-13T02:56:57;14.00;1.00
25556;DHT22;13447;57.174;-2.112;2023-07-13T02:59:24;14.00;1.00
25556;DHT22;13447;57.174;-2.112;2023-07-13T03:01:51;14.00;1.00
25556;DHT22;13447;57.174;-2.112;2023-07-13T03:04:18;14.00;1.00
25556;DHT22;13447;57.174;-2.112;2023-07-13T03:06:46;14.00;1.00
25556;DHT22;13447;57.174;-2.112;2023-07-13T03:09:13;14.00;1.00
25556;DHT22;13447;57.174;-2.112;2023-07-13T03:11:40;14.00;1.00
25556;DHT22;13447;57.174;-2.112;2023-07-13T03:14:07;14.00;1.00
25556;DHT22;13447;57.174;-2.112;2023-07-13T03:16:34;14.00;1.00
25556;DHT22;13447;57.174;-2.112;2023-07-13T03:19:01;14.00;1.00
25556;DHT22;13447;57.174;-2.112;2023-07-13T03:21:28;13.90;1.00
25556;DHT22;13447;57.174;-2.112;2023-07-13T03:23:55;13.90;1.00
25556;DHT22;13447;57.174;-2.112;2023-07-13T03:26:22;13.90;1.00
25556;DHT22;13447;57.174;-2.112;2023-07-13T03:28:49;13.90;1.00
25556;DHT22;13447;57.174;-2.112;2023-07-13T03:31:17;13.90;1.00
25556;DHT22;13447;57.174;-2.112;2023-07-13T03:33:45;13.90;1.00
25556;DHT22;13447;57.174;-2.112;2023-07-13T03:36:13;14.00;1.00
25556;DHT22;13447;57.174;-2.112;2023-07-13T03:38:41;13.90;1.00
25556;DHT22;13447;57.174;-2.112;2023-07-13T03:41:07;13.90;1.00
25556;DHT22;13447;57.174;-2.112;2023-07-13T03:43:34;13.90;1.00
25556;DHT22;13447;57.174;-2.112;2023-07-13T03:46:01;13.90;1.00
25556;DHT22;13447;57.174;-2.112;2023-07-13T03:48:28;13.90;1.00
25556;DHT22;13447;57.174;-2.112;2023-07-13T03:50:55;14.00;1.00
25556;DHT22;13447;57.174;-2.112;2023-07-13T03:53:22;14.00;1.00
25556;DHT22;13447;57.174;-2.112;2023-07-13T03:55:49;14.00;1.00
25556;DHT22;13447;57.174;-2.112;2023-07-13T03:58:30;14.10;1.00
25556;DHT22;13447;57.174;-2.112;2023-07-13T04:00:57;14.10;1.00
25556;DHT22;13447;57.174;-2.112;2023-07-13T04:03:25;14.10;1.00
25556;DHT22;13447;57.174;-2.112;2023-07-13T04:05:52;14.10;1.00
25556;DHT22;13447;57.174;-2.112;2023-07-13T04:08:18;14.10;1.00
25556;DHT22;13447;57.174;-2.112;2023-07-13T04:10:45;14.10;1.00
25556;DHT22;13447;57.174;-2.112;2023-07-13T04:13:12;14.00;1.00
25556;DHT22;13447;57.174;-2.112;2023-07-13T04:15:39;14.00;1.00
25556;DHT22;13447;57.174;-2.112;2023-07-13T04:18:06;14.00;1.00
25556;DHT22;13447;57.174;-2.112;2023-07-13T04:20:33;14.00;1.00
25556;DHT22;13447;57.174;-2.112;2023-07-13T04:23:00;14.00;1.00
25556;DHT22;13447;57.174;-2.112;2023-07-13T04:25:27;14.10;1.00
25556;DHT22;13447;57.174;-2.112;2023-07-13T04:27:54;14.10;1.00
25556;DHT22;13447;57.174;-2.112;2023-07-13T04:30:21;14.10;1.00
25556;DHT22;13447;57.174;-2.112;2023-07-13T04:32:50;14.10;1.00
25556;DHT22;13447;57.174;-2.112;2023-07-13T04:35:19;14.20;1.00
25556;DHT22;13447;57.174;-2.112;2023-07-13T04:37:50;14.20;1.00
25556;DHT22;13447;57.174;-2.112;2023-07-13T04:40:17;14.30;1.00
25556;DHT22;13447;57.174;-2.112;2023-07-13T04:42:45;14.30;1.00
25556;DHT22;13447;57.174;-2.112;2023-07-13T04:45:12;14.20;1.00
25556;DHT22;13447;57.174;-2.112;2023-07-13T04:47:40;14.30;1.00
25556;DHT22;13447;57.174;-2.112;2023-07-13T04:50:07;14.30;1.00
25556;DHT22;13447;57.174;-2.112;2023-07-13T04:52:34;14.30;1.00
25556;DHT22;13447;57.174;-2.112;2023-07-13T04:55:01;14.40;1.00
25556;DHT22;13447;57.174;-2.112;2023-07-13T04:57:28;14.40;1.00
25556;DHT22;13447;57.174;-2.112;2023-07-13T04:59:55;14.40;1.00
25556;DHT22;13447;57.174;-2.112;2023-07-13T05:02:22;14.40;1.00
25556;DHT22;13447;57.174;-2.112;2023-07-13T05:04:49;14.40;1.00
25556;DHT22;13447;57.174;-2.112;2023-07-13T05:07:15;14.50;1.00
25556;DHT22;13447;57.174;-2.112;2023-07-13T05:09:42;14.50;1.00
25556;DHT22;13447;57.174;-2.112;2023-07-13T05:12:09;14.50;1.00
25556;DHT22;13447;57.174;-2.112;2023-07-13T05:14:36;14.50;1.00
25556;DHT22;13447;57.174;-2.112;2023-07-13T05:17:03;14.50;1.00
25556;DHT22;13447;57.174;-2.112;2023-07-13T05:19:30;14.50;1.00
25556;DHT22;13447;57.174;-2.112;2023-07-13T05:21:57;14.50;1.00
25556;DHT22;13447;57.174;-2.112;2023-07-13T05:24:24;14.50;1.00
25556;DHT22;13447;57.174;-2.112;2023-07-13T05:26:52;14.50;1.00
25556;DHT22;13447;57.174;-2.112;2023-07-13T05:29:20;14.50;1.00
25556;DHT22;13447;57.174;-2.112;2023-07-13T05:31:47;14.60;1.00
25556;DHT22;13447;57.174;-2.112;2023-07-13T05:34:15;14.60;1.00
25556;DHT22;13447;57.174;-2.112;2023-07-13T05:36:42;14.60;1.00
25556;DHT22;13447;57.174;-2.112;2023-07-13T05:39:09;14.60;1.00
25556;DHT22;13447;57.174;-2.112;2023-07-13T05:41:35;14.70;1.00
25556;DHT22;13447;57.174;-2.112;2023-07-13T05:44:02;14.90;1.00
25556;DHT22;13447;57.174;-2.112;2023-07-13T05:46:29;15.00;1.00
25556;DHT22;13447;57.174;-2.112;2023-07-13T05:48:57;15.00;99.90
25556;DHT22;13447;57.174;-2.112;2023-07-13T05:51:24;15.00;99.90
25556;DHT22;13447;57.174;-2.112;2023-07-13T05:53:51;15.10;99.90
25556;DHT22;13447;57.174;-2.112;2023-07-13T05:56:17;15.30;99.90
25556;DHT22;13447;57.174;-2.112;2023-07-13T05:58:44;15.30;99.90
25556;DHT22;13447;57.174;-2.112;2023-07-13T06:01:12;15.40;99.90
25556;DHT22;13447;57.174;-2.112;2023-07-13T06:03:40;15.50;99.90
25556;DHT22;13447;57.174;-2.112;2023-07-13T06:06:08;15.70;99.90
25556;DHT22;13447;57.174;-2.112;2023-07-13T06:08:36;15.60;99.90
25556;DHT22;13447;57.174;-2.112;2023-07-13T06:11:04;15.70;99.90
25556;DHT22;13447;57.174;-2.112;2023-07-13T06:13:31;16.00;99.90
25556;DHT22;13447;57.174;-2.112;2023-07-13T06:16:00;16.10;99.90
25556;DHT22;13447;57.174;-2.112;2023-07-13T06:18:27;16.20;99.90
25556;DHT22;13447;57.174;-2.112;2023-07-13T06:20:53;16.30;99.90
25556;DHT22;13447;57.174;-2.112;2023-07-13T06:23:20;16.30;99.90
25556;DHT22;13447;57.174;-2.112;2023-07-13T06:25:47;16.40;99.90
25556;DHT22;13447;57.174;-2.112;2023-07-13T06:28:14;16.20;99.90
25556;DHT22;13447;57.174;-2.112;2023-07-13T06:30:41;16.30;99.90
25556;DHT22;13447;57.174;-2.112;2023-07-13T06:33:08;16.30;99.90
25556;DHT22;13447;57.174;-2.112;2023-07-13T06:35:34;16.20;99.90
25556;DHT22;13447;57.174;-2.112;2023-07-13T06:38:01;16.30;99.90
25556;DHT22;13447;57.174;-2.112;2023-07-13T06:40:29;16.30;99.90
25556;DHT22;13447;57.174;-2.112;2023-07-13T06:42:57;16.30;99.90
25556;DHT22;13447;57.174;-2.112;2023-07-13T06:45:23;16.00;99.90
25556;DHT22;13447;57.174;-2.112;2023-07-13T06:47:50;16.00;99.90
25556;DHT22;13447;57.174;-2.112;2023-07-13T06:50:17;16.10;99.90
25556;DHT22;13447;57.174;-2.112;2023-07-13T06:52:44;16.20;99.90
25556;DHT22;13447;57.174;-2.112;2023-07-13T06:55:11;16.30;99.90
25556;DHT22;13447;57.174;-2.112;2023-07-13T06:57:38;16.40;99.90
25556;DHT22;13447;57.174;-2.112;2023-07-13T07:00:05;16.40;99.90
25556;DHT22;13447;57.174;-2.112;2023-07-13T07:02:33;16.40;99.90
25556;DHT22;13447;57.174;-2.112;2023-07-13T07:05:01;16.50;99.90
25556;DHT22;13447;57.174;-2.112;2023-07-13T07:07:28;16.50;99.90
25556;DHT22;13447;57.174;-2.112;2023-07-13T07:09:55;16.30;44.80
25556;DHT22;13447;57.174;-2.112;2023-07-13T07:12:22;16.50;99.90
25556;DHT22;13447;57.174;-2.112;2023-07-13T07:14:49;16.70;99.90
25556;DHT22;13447;57.174;-2.112;2023-07-13T07:17:16;16.80;95.40
25556;DHT22;13447;57.174;-2.112;2023-07-13T07:19:42;16.80;99.90
25556;DHT22;13447;57.174;-2.112;2023-07-13T07:22:09;16.90;99.90
25556;DHT22;13447;57.174;-2.112;2023-07-13T07:24:36;17.10;51.90
25556;DHT22;13447;57.174;-2.112;2023-07-13T07:27:03;17.20;17.00
25556;DHT22;13447;57.174;-2.112;2023-07-13T07:29:33;17.30;1.00
25556;DHT22;13447;57.174;-2.112;2023-07-13T07:32:03;17.20;1.00
25556;DHT22;13447;57.174;-2.112;2023-07-13T07:34:50;17.20;1.00
25556;DHT22;13447;57.174;-2.112;2023-07-13T07:37:16;17.10;1.00
25556;DHT22;13447;57.174;-2.112;2023-07-13T07:39:46;17.10;1.00
25556;DHT22;13447;57.174;-2.112;2023-07-13T07:42:33;17.10;1.00
25556;DHT22;13447;57.174;-2.112;2023-07-13T07:45:00;17.10;1.00
25556;DHT22;13447;57.174;-2.112;2023-07-13T07:47:28;17.10;1.00
25556;DHT22;13447;57.174;-2.112;2023-07-13T07:49:54;17.10;1.00
25556;DHT22;13447;57.174;-2.112;2023-07-13T07:52:21;17.10;1.00
25556;DHT22;13447;57.174;-2.112;2023-07-13T07:54:48;17.00;1.00
25556;DHT22;13447;57.174;-2.112;2023-07-13T07:57:18;16.80;1.00
25556;DHT22;13447;57.174;-2.112;2023-07-13T08:00:05;16.80;1.00
25556;DHT22;13447;57.174;-2.112;2023-07-13T08:02:35;16.80;1.00
25556;DHT22;13447;57.174;-2.112;2023-07-13T08:05:04;16.80;1.00
25556;DHT22;13447;57.174;-2.112;2023-07-13T08:07:35;16.80;1.00
25556;DHT22;13447;57.174;-2.112;2023-07-13T08:10:02;16.80;1.00
25556;DHT22;13447;57.174;-2.112;2023-07-13T08:12:28;16.90;1.00
25556;DHT22;13447;57.174;-2.112;2023-07-13T08:14:58;16.90;1.00
25556;DHT22;13447;57.174;-2.112;2023-07-13T08:17:27;17.00;1.00
25556;DHT22;13447;57.174;-2.112;2023-07-13T08:19:54;16.90;1.00
25556;DHT22;13447;57.174;-2.112;2023-07-13T08:22:21;17.00;1.00
25556;DHT22;13447;57.174;-2.112;2023-07-13T08:24:48;17.00;1.00
25556;DHT22;13447;57.174;-2.112;2023-07-13T08:27:23;17.10;38.60
25556;DHT22;13447;57.174;-2.112;2023-07-13T08:29:50;16.90;56.40
25556;DHT22;13447;57.174;-2.112;2023-07-13T08:32:18;16.60;64.10
25556;DHT22;13447;57.174;-2.112;2023-07-13T08:34:45;16.60;80.90
25556;DHT22;13447;57.174;-2.112;2023-07-13T08:37:12;16.50;99.90
25556;DHT22;13447;57.174;-2.112;2023-07-13T08:39:39;16.40;97.50
25556;DHT22;13447;57.174;-2.112;2023-07-13T08:45:17;16.40;99.90
25556;DHT22;13447;57.174;-2.112;2023-07-13T08:47:47;16.30;99.90
25556;DHT22;13447;57.174;-2.112;2023-07-13T08:50:17;16.40;99.90
25556;DHT22;13447;57.174;-2.112;2023-07-13T08:52:45;16.40;99.90
25556;DHT22;13447;57.174;-2.112;2023-07-13T08:55:16;16.50;99.90
25556;DHT22;13447;57.174;-2.112;2023-07-13T08:57:45;16.50;92.30
25556;DHT22;13447;57.174;-2.112;2023-07-13T09:00:13;16.60;76.30
25556;DHT22;13447;57.174;-2.112;2023-07-13T09:02:45;16.60;73.50
25556;DHT22;13447;57.174;-2.112;2023-07-13T09:12:58;17.10;99.90
25556;DHT22;13447;57.174;-2.112;2023-07-13T09:15:31;17.20;99.90
25556;DHT22;13447;57.174;-2.112;2023-07-13T09:18:22;17.10;99.90
25556;DHT22;13447;57.174;-2.112;2023-07-13T09:20:50;17.30;93.10
25556;DHT22;13447;57.174;-2.112;2023-07-13T09:23:21;17.20;75.30
25556;DHT22;13447;57.174;-2.112;2023-07-13T09:25:49;17.30;67.80
25556;DHT22;13447;57.174;-2.112;2023-07-13T09:28:25;17.20;99.90
25556;DHT22;13447;57.174;-2.112;2023-07-13T09:31:01;17.30;99.90
25556;DHT22;13447;57.174;-2.112;2023-07-13T09:33:30;17.40;99.90
25556;DHT22;13447;57.174;-2.112;2023-07-13T09:35:58;17.40;99.90
25556;DHT22;13447;57.174;-2.112;2023-07-13T09:38:26;17.20;99.90
25556;DHT22;13447;57.174;-2.112;2023-07-13T09:43:28;16.90;99.90
25556;DHT22;13447;57.174;-2.112;2023-07-13T09:45:55;16.90;99.90
25556;DHT22;13447;57.174;-2.112;2023-07-13T09:48:22;16.80;99.90
25556;DHT22;13447;57.174;-2.112;2023-07-13T09:50:54;16.90;99.90
25556;DHT22;13447;57.174;-2.112;2023-07-13T09:53:20;16.70;99.90
25556;DHT22;13447;57.174;-2.112;2023-07-13T09:55:48;16.60;99.90
25556;DHT22;13447;57.174;-2.112;2023-07-13T09:58:22;16.60;99.90
25556;DHT22;13447;57.174;-2.112;2023-07-13T10:00:56;16.30;99.90
25556;DHT22;13447;57.174;-2.112;2023-07-13T10:03:25;16.10;99.90
25556;DHT22;13447;57.174;-2.112;2023-07-13T10:05:52;16.00;99.90
25556;DHT22;13447;57.174;-2.112;2023-07-13T10:10:46;15.90;99.90
25556;DHT22;13447;57.174;-2.112;2023-07-13T10:13:29;15.70;99.90
25556;DHT22;13447;57.174;-2.112;2023-07-13T10:15:57;15.70;99.90
25556;DHT22;13447;57.174;-2.112;2023-07-13T10:18:24;15.50;99.90
25556;DHT22;13447;57.174;-2.112;2023-07-13T10:20:58;15.40;1.00
25556;DHT22;13447;57.174;-2.112;2023-07-13T10:23:53;15.30;1.00
25556;DHT22;13447;57.174;-2.112;2023-07-13T10:26:22;15.30;1.00
25556;DHT22;13447;57.174;-2.112;2023-07-13T10:28:52;15.10;1.00
25556;DHT22;13447;57.174;-2.112;2023-07-13T10:31:19;15.10;1.00
25556;DHT22;13447;57.174;-2.112;2023-07-13T10:33:47;15.00;1.00
25556;DHT22;13447;57.174;-2.112;2023-07-13T10:36:16;15.00;1.00
25556;DHT22;13447;57.174;-2.112;2023-07-13T10:38:44;15.00;1.00
25556;DHT22;13447;57.174;-2.112;2023-07-13T10:41:16;14.80;1.00
25556;DHT22;13447;57.174;-2.112;2023-07-13T10:43:47;14.90;1.00
25556;DHT22;13447;57.174;-2.112;2023-07-13T10:46:18;14.90;1.00
25556;DHT22;13447;57.174;-2.112;2023-07-13T10:48:46;14.80;1.00
25556;DHT22;13447;57.174;-2.112;2023-07-13T10:51:17;14.80;1.00
25556;DHT22;13447;57.174;-2.112;2023-07-13T10:53:44;14.70;1.00
25556;DHT22;13447;57.174;-2.112;2023-07-13T10:58:47;14.90;1.00
25556;DHT22;13447;57.174;-2.112;2023-07-13T11:04:00;15.10;1.00
25556;DHT22;13447;57.174;-2.112;2023-07-13T11:06:39;15.10;1.00
25556;DHT22;13447;57.174;-2.112;2023-07-13T11:09:30;15.10;1.00
25556;DHT22;13447;57.174;-2.112;2023-07-13T11:12:01;14.90;1.00
25556;DHT22;13447;57.174;-2.112;2023-07-13T11:15:15;14.80;1.00
25556;DHT22;13447;57.174;-2.112;2023-07-13T11:22:43;15.00;1.00
25556;DHT22;13447;57.174;-2.112;2023-07-13T11:27:49;15.00;99.90
25556;DHT22;13447;57.174;-2.112;2023-07-13T11:33:03;15.10;99.90
25556;DHT22;13447;57.174;-2.112;2023-07-13T11:35:35;15.10;99.90
25556;DHT22;13447;57.174;-2.112;2023-07-13T11:38:03;15.10;99.90
25556;DHT22;13447;57.174;-2.112;2023-07-13T11:40:35;15.10;1.00
25556;DHT22;13447;57.174;-2.112;2023-07-13T11:43:02;15.10;99.90
25556;DHT22;13447;57.174;-2.112;2023-07-13T11:45:33;15.20;99.90
25556;DHT22;13447;57.174;-2.112;2023-07-13T11:48:28;15.20;99.90
25556;DHT22;13447;57.174;-2.112;2023-07-13T11:51:02;15.20;99.90
25556;DHT22;13447;57.174;-2.112;2023-07-13T11:53:38;15.20;99.90
25556;DHT22;13447;57.174;-2.112;2023-07-13T11:56:06;15.20;99.90
25556;DHT22;13447;57.174;-2.112;2023-07-13T11:58:33;15.30;99.90
25556;DHT22;13447;57.174;-2.112;2023-07-13T12:01:00;15.30;99.90
25556;DHT22;13447;57.174;-2.112;2023-07-13T12:03:32;15.40;1.00
25556;DHT22;13447;57.174;-2.112;2023-07-13T12:06:06;15.60;1.00
25556;DHT22;13447;57.174;-2.112;2023-07-13T12:08:39;15.60;99.90
25556;DHT22;13447;57.174;-2.112;2023-07-13T12:11:17;15.70;99.90
25556;DHT22;13447;57.174;-2.112;2023-07-13T12:13:44;15.70;99.90
25556;DHT22;13447;57.174;-2.112;2023-07-13T12:16:17;15.60;99.90
25556;DHT22;13447;57.174;-2.112;2023-07-13T12:18:49;15.70;99.90
25556;DHT22;13447;57.174;-2.112;2023-07-13T12:21:18;15.60;99.90
25556;DHT22;13447;57.174;-2.112;2023-07-13T12:23:47;15.50;99.90
25556;DHT22;13447;57.174;-2.112;2023-07-13T12:26:15;15.40;99.90
25556;DHT22;13447;57.174;-2.112;2023-07-13T12:28:46;15.50;99.90
25556;DHT22;13447;57.174;-2.112;2023-07-13T12:33:56;15.70;99.90
25556;DHT22;13447;57.174;-2.112;2023-07-13T12:36:23;15.70;99.90
25556;DHT22;13447;57.174;-2.112;2023-07-13T12:38:50;15.90;99.90
25556;DHT22;13447;57.174;-2.112;2023-07-13T12:41:17;15.90;99.90
25556;DHT22;13447;57.174;-2.112;2023-07-13T12:43:45;16.00;99.90
25556;DHT22;13447;57.174;-2.112;2023-07-13T12:53:43;16.50;99.90
25556;DHT22;13447;57.174;-2.112;2023-07-13T12:56:18;16.50;99.90
25556;DHT22;13447;57.174;-2.112;2023-07-13T12:58:47;16.80;99.90
25556;DHT22;13447;57.174;-2.112;2023-07-13T13:01:16;17.00;99.90
25556;DHT22;13447;57.174;-2.112;2023-07-13T13:03:47;17.10;99.90
25556;DHT22;13447;57.174;-2.112;2023-07-13T13:08:45;17.70;99.90
25556;DHT22;13447;57.174;-2.112;2023-07-13T13:11:13;17.90;99.90
25556;DHT22;13447;57.174;-2.112;2023-07-13T13:13:42;18.10;99.90
25556;DHT22;13447;57.174;-2.112;2023-07-13T13:18:49;17.60;99.90
25556;DHT22;13447;57.174;-2.112;2023-07-13T13:21:16;17.50;99.90
25556;DHT22;13447;57.174;-2.112;2023-07-13T13:23:43;17.50;99.90
25556;DHT22;13447;57.174;-2.112;2023-07-13T13:26:11;17.50;98.10
25556;DHT22;13447;57.174;-2.112;2023-07-13T13:28:39;17.60;99.90
25556;DHT22;13447;57.174;-2.112;2023-07-13T13:31:07;17.50;96.90
25556;DHT22;13447;57.174;-2.112;2023-07-13T13:33:39;17.60;18.90
25556;DHT22;13447;57.174;-2.112;2023-07-13T13:36:16;17.70;33.20
25556;DHT22;13447;57.174;-2.112;2023-07-13T13:38:43;17.70;45.50
25556;DHT22;13447;57.174;-2.112;2023-07-13T13:41:12;17.90;99.90
25556;DHT22;13447;57.174;-2.112;2023-07-13T13:43:40;17.80;26.30
25556;DHT22;13447;57.174;-2.112;2023-07-13T13:46:20;17.70;1.00
25556;DHT22;13447;57.174;-2.112;2023-07-13T13:48:48;17.70;1.00
25556;DHT22;13447;57.174;-2.112;2023-07-13T13:51:19;17.80;5.60
25556;DHT22;13447;57.174;-2.112;2023-07-13T13:53:47;17.50;1.00
25556;DHT22;13447;57.174;-2.112;2023-07-13T13:56:14;17.40;1.00
25556;DHT22;13447;57.174;-2.112;2023-07-13T13:58:41;17.50;20.80
25556;DHT22;13447;57.174;-2.112;2023-07-13T14:01:16;17.40;1.00
25556;DHT22;13447;57.174;-2.112;2023-07-13T14:03:46;17.30;1.00
25556;DHT22;13447;57.174;-2.112;2023-07-13T14:06:15;17.30;1.00
25556;DHT22;13447;57.174;-2.112;2023-07-13T14:08:42;17.30;58.60
25556;DHT22;13447;57.174;-2.112;2023-07-13T14:11:13;17.50;22.00
25556;DHT22;13447;57.174;-2.112;2023-07-13T14:13:42;17.80;97.00
25556;DHT22;13447;57.174;-2.112;2023-07-13T14:16:11;17.90;35.70
25556;DHT22;13447;57.174;-2.112;2023-07-13T14:18:40;17.70;24.60
25556;DHT22;13447;57.174;-2.112;2023-07-13T14:21:13;17.60;14.40
25556;DHT22;13447;57.174;-2.112;2023-07-13T14:23:40;17.70;64.20
25556;DHT22;13447;57.174;-2.112;2023-07-13T14:26:17;17.70;22.00
25556;DHT22;13447;57.174;-2.112;2023-07-13T14:28:48;17.60;10.80
25556;DHT22;13447;57.174;-2.112;2023-07-13T14:31:16;17.50;49.10
25556;DHT22;13447;57.174;-2.112;2023-07-13T14:33:46;17.60;61.10
25556;DHT22;13447;57.174;-2.112;2023-07-13T14:36:27;17.50;35.80
25556;DHT22;13447;57.174;-2.112;2023-07-13T14:38:56;17.20;56.60
25556;DHT22;13447;57.174;-2.112;2023-07-13T14:41:24;17.30;72.30
25556;DHT22;13447;57.174;-2.112;2023-07-13T14:43:50;17.60;99.90
25556;DHT22;13447;57.174;-2.112;2023-07-13T14:48:47;17.80;85.90
25556;DHT22;13447;57.174;-2.112;2023-07-13T14:51:14;17.80;99.90
25556;DHT22;13447;57.174;-2.112;2023-07-13T14:53:41;17.90;99.90
25556;DHT22;13447;57.174;-2.112;2023-07-13T14:56:11;18.00;61.00
25556;DHT22;13447;57.174;-2.112;2023-07-13T14:58:39;18.10;99.90
25556;DHT22;13447;57.174;-2.112;2023-07-13T15:01:12;18.20;76.50
25556;DHT22;13447;57.174;-2.112;2023-07-13T15:03:50;18.20;90.10
25556;DHT22;13447;57.174;-2.112;2023-07-13T15:06:17;18.40;79.80
25556;DHT22;13447;57.174;-2.112;2023-07-13T15:08:45;18.50;43.40
25556;DHT22;13447;57.174;-2.112;2023-07-13T15:11:12;18.50;36.50
25556;DHT22;13447;57.174;-2.112;2023-07-13T15:13:40;18.70;19.00
25556;DHT22;13447;57.174;-2.112;2023-07-13T15:16:18;18.70;1.00
25556;DHT22;13447;57.174;-2.112;2023-07-13T15:18:45;18.80;1.00
25556;DHT22;13447;57.174;-2.112;2023-07-13T15:21:18;18.50;1.00
25556;DHT22;13447;57.174;-2.112;2023-07-13T15:23:46;18.30;1.00
25556;DHT22;13447;57.174;-2.112;2023-07-13T15:26:13;18.40;1.00
25556;DHT22;13447;57.174;-2.112;2023-07-13T15:28:41;18.30;1.00
25556;DHT22;13447;57.174;-2.112;2023-07-13T15:31:17;18.00;1.00
25556;DHT22;13447;57.174;-2.112;2023-07-13T15:33:44;17.90;1.00
25556;DHT22;13447;57.174;-2.112;2023-07-13T15:36:11;17.80;1.00
25556;DHT22;13447;57.174;-2.112;2023-07-13T15:38:39;17.50;1.00
25556;DHT22;13447;57.174;-2.112;2023-07-13T15:41:23;17.60;1.00
25556;DHT22;13447;57.174;-2.112;2023-07-13T15:43:51;17.50;16.40
25556;DHT22;13447;57.174;-2.112;2023-07-13T15:46:18;17.50;79.10
25556;DHT22;13447;57.174;-2.112;2023-07-13T15:48:45;17.50;20.60
25556;DHT22;13447;57.174;-2.112;2023-07-13T15:51:15;17.50;32.20
25556;DHT22;13447;57.174;-2.112;2023-07-13T15:53:44;17.30;70.40
25556;DHT22;13447;57.174;-2.112;2023-07-13T15:56:17;17.30;99.90
25556;DHT22;13447;57.174;-2.112;2023-07-13T15:58:45;17.20;99.90
25556;DHT22;13447;57.174;-2.112;2023-07-13T16:01:13;17.10;99.90
25556;DHT22;13447;57.174;-2.112;2023-07-13T16:03:40;17.00;99.90
25556;DHT22;13447;57.174;-2.112;2023-07-13T16:06:13;17.00;99.90
25556;DHT22;13447;57.174;-2.112;2023-07-13T16:08:40;17.10;99.90
25556;DHT22;13447;57.174;-2.112;2023-07-13T16:11:12;17.00;99.90
25556;DHT22;13447;57.174;-2.112;2023-07-13T16:13:43;17.00;99.90
25556;DHT22;13447;57.174;-2.112;2023-07-13T16:16:12;17.00;99.90
25556;DHT22;13447;57.174;-2.112;2023-07-13T16:18:41;17.00;99.90
25556;DHT22;13447;57.174;-2.112;2023-07-13T16:21:12;16.90;99.90
25556;DHT22;13447;57.174;-2.112;2023-07-13T16:23:39;17.00;99.90
25556;DHT22;13447;57.174;-2.112;2023-07-13T16:28:59;16.90;99.90